KTOB

Dodge Center Airport

Dodge Center, Minnesota, USA
METAR KTOB 212335Z AUTO 00000KT 10SM -DZ SCT080 18/13 A2990 RMK AO2
Observed Flight Rules
Jun-21 @ 23:35 UTC (23 minutes ago) Visual Flight Rules
Visibility Clouds Conditions
10 miles
  • Scattered at 8,000' AGL
  • Light Drizzle
Temperatures Readings
Current 18°C / 64°F
Dewpoint 13°C / 55°F
Humidity 73%
Altimeter 29.9" Hg
Pressure 1013 hPa
Elevation 398
METAR KTOB 212335Z AUTO 00000KT 10SM -DZ SCT080 18/13 A2990 RMK AO2
Observed Flight Rules
Jun-21 @ 23:35 UTC
(23 minutes ago)
VFR
Clouds
  • Scattered at 8,000' AGL
Conditions
  • Light Drizzle
Temperature Dewpoint
18°C / 64°F 13°C / 55°F
Humidity Altimeter Pressure
73% 29.9" Hg 1013 hPa